createdAt,value
2019-05-20T00:00:43.703Z,99987.16
2019-05-20T00:03:13.473Z,99975.34
2019-05-20T00:05:43.302Z,99980.34
2019-05-20T00:08:13.287Z,99972.70
2019-05-20T00:10:43.052Z,99979.84
2019-05-20T00:13:12.975Z,99976.67
2019-05-20T00:15:42.875Z,99978.91
2019-05-20T00:18:12.791Z,99968.97
2019-05-20T00:20:42.565Z,99974.48
2019-05-20T00:23:13.337Z,99976.60
2019-05-20T00:25:43.096Z,99977.53
2019-05-20T00:28:12.853Z,99977.53
2019-05-20T00:30:42.798Z,99979.86
2019-05-20T00:33:12.753Z,99968.25
2019-05-20T00:35:43.857Z,99978.53
2019-05-20T00:38:13.739Z,99982.48
2019-05-20T00:40:43.581Z,99985.50
2019-05-20T00:43:13.473Z,99986.16
2019-05-20T00:45:43.316Z,99988.78
2019-05-20T00:48:13.081Z,99989.92
2019-05-20T00:50:43.100Z,99982.98
2019-05-20T00:53:13.087Z,99986.33
2019-05-20T00:55:42.974Z,99984.56
2019-05-20T00:58:12.751Z,99984.16
2019-05-20T01:00:42.765Z,99989.62
2019-05-20T01:03:12.623Z,99989.38
2019-05-20T01:05:42.432Z,99985.17
2019-05-20T01:08:12.185Z,99990.62
2019-05-20T01:10:42.181Z,99992.70
2019-05-20T01:13:11.969Z,99985.30
2019-05-20T01:15:41.869Z,99987.14
2019-05-20T01:18:11.662Z,99987.81
2019-05-20T01:20:41.696Z,99991.41
2019-05-20T01:23:11.449Z,99995.46
2019-05-20T01:25:41.255Z,99996.14
2019-05-20T01:28:11.150Z,99995.09
2019-05-20T01:30:41.083Z,100003.39
2019-05-20T01:33:14.127Z,99994.66
2019-05-20T01:35:42.490Z,100000.50
2019-05-20T01:38:12.322Z,100005.20
2019-05-20T01:40:42.185Z,100001.47
2019-05-20T01:43:12.088Z,100001.80
2019-05-20T01:45:42.033Z,100011.72
2019-05-20T01:48:11.903Z,100004.23
2019-05-20T01:50:41.860Z,100001.50
2019-05-20T01:53:11.945Z,100001.10
2019-05-20T01:55:41.793Z,100000.48
2019-05-20T01:58:11.674Z,99999.84
2019-05-20T02:00:41.488Z,100004.23
2019-05-20T02:03:11.359Z,100008.19
2019-05-20T02:05:41.154Z,100000.95
2019-05-20T02:08:10.967Z,100007.71
2019-05-20T02:10:40.771Z,100002.22
2019-05-20T02:13:10.667Z,100001.62
2019-05-20T02:15:46.278Z,100007.81
2019-05-20T02:18:16.178Z,100011.19
2019-05-20T02:20:46.021Z,100014.23
2019-05-20T02:23:16.171Z,100018.00
2019-05-20T02:25:47.324Z,100005.63
2019-05-20T02:28:17.162Z,100004.48
2019-05-20T02:30:47.082Z,100001.43
2019-05-20T02:33:16.995Z,99996.18
2019-05-20T02:35:46.830Z,99989.84
2019-05-20T02:38:16.701Z,99986.88
2019-05-20T02:40:47.599Z,99979.15
2019-05-20T02:43:17.359Z,99982.14
2019-05-20T02:45:47.218Z,99986.53
2019-05-20T02:48:17.137Z,99987.52
2019-05-20T02:50:47.063Z,99983.91
2019-05-20T02:53:16.940Z,99992.56
2019-05-20T02:55:46.745Z,99988.11
2019-05-20T02:58:16.545Z,99985.98
2019-05-20T03:00:46.327Z,99994.63
2019-05-20T03:03:16.196Z,99991.72
2019-05-20T03:05:46.055Z,99990.56
2019-05-20T03:08:15.964Z,99991.83
2019-05-20T03:10:45.650Z,99992.98
2019-05-20T03:13:15.414Z,99999.16
2019-05-20T03:15:46.347Z,99990.19
2019-05-20T03:18:16.082Z,99992.74
2019-05-20T03:20:45.858Z,99993.30
2019-05-20T03:23:16.641Z,99985.50
2019-05-20T03:25:46.515Z,99979.05
2019-05-20T03:28:16.365Z,99976.50
2019-05-20T03:30:46.138Z,99979.55
2019-05-20T03:33:16.120Z,99978.06
2019-05-20T03:35:46.132Z,99970.63
2019-05-20T03:38:16.044Z,99968.64
2019-05-20T03:40:45.860Z,99965.27
2019-05-20T03:43:15.660Z,99968.08
2019-05-20T03:45:45.427Z,99967.48
2019-05-20T03:48:15.163Z,99976.72
2019-05-20T03:50:44.916Z,99984.70
2019-05-20T03:53:14.833Z,99984.75
2019-05-20T03:55:45.084Z,99982.36
2019-05-20T03:58:14.928Z,99981.25
2019-05-20T04:00:46.164Z,99982.95
2019-05-20T04:03:16.484Z,99979.59
2019-05-20T04:05:46.447Z,99973.47
2019-05-20T04:08:16.251Z,99973.03
2019-05-20T04:10:46.147Z,99978.20
2019-05-20T04:13:16.026Z,99981.41
2019-05-20T04:15:45.962Z,99985.17
2019-05-20T04:18:15.851Z,99983.41
2019-05-20T04:20:45.745Z,99983.33
2019-05-20T04:23:15.610Z,99985.78
2019-05-20T04:25:45.454Z,99980.33
2019-05-20T04:28:15.171Z,99984.61
2019-05-20T04:30:45.078Z,99984.89
2019-05-20T04:33:14.898Z,99985.16
2019-05-20T04:35:49.248Z,99985.08
2019-05-20T04:38:16.274Z,99988.60
2019-05-20T04:40:46.118Z,99982.16
2019-05-20T04:43:15.913Z,99977.70
2019-05-20T04:45:45.895Z,99980.30
2019-05-20T04:48:15.685Z,99980.22
2019-05-20T04:50:45.448Z,99984.95
2019-05-20T04:53:15.158Z,99986.05
2019-05-20T04:55:44.989Z,99980.88
2019-05-20T04:58:14.924Z,99981.80
2019-05-20T05:00:55.444Z,99984.30
2019-05-20T05:03:25.201Z,99984.82
2019-05-20T05:05:55.384Z,99986.22
2019-05-20T05:08:25.441Z,99985.66
2019-05-20T05:10:55.556Z,99990.67
2019-05-20T05:13:25.814Z,99991.50
2019-05-20T05:15:55.736Z,99994.39
2019-05-20T05:18:25.627Z,99996.47
2019-05-20T05:20:56.492Z,99994.51
2019-05-20T05:23:26.472Z,100006.01
2019-05-20T05:25:56.618Z,100001.84
2019-05-20T05:28:27.657Z,100004.53
2019-05-20T05:30:57.497Z,100005.88
2019-05-20T05:33:27.540Z,100004.04
2019-05-20T05:35:57.315Z,100005.72
2019-05-20T05:38:27.181Z,100000.35
2019-05-20T05:40:57.123Z,99998.03
2019-05-20T05:43:26.872Z,100000.98
2019-05-20T05:45:56.737Z,100001.34
2019-05-20T05:48:26.660Z,100007.23
2019-05-20T05:50:56.635Z,100002.88
2019-05-20T05:53:26.527Z,100000.61
2019-05-20T05:55:56.279Z,100004.16
2019-05-20T05:58:27.230Z,100008.85
2019-05-20T06:00:57.121Z,100007.00
2019-05-20T06:03:27.045Z,100008.97
2019-05-20T06:06:11.684Z,100003.97
2019-05-20T06:08:28.435Z,100007.52
2019-05-20T06:10:58.437Z,100013.52
2019-05-20T06:13:29.419Z,100016.44
2019-05-20T06:15:59.255Z,100015.29
2019-05-20T06:18:29.081Z,100015.81
2019-05-20T06:20:58.869Z,100018.70
2019-05-20T06:23:28.644Z,100019.66
2019-05-20T06:25:58.450Z,100017.80
2019-05-20T06:28:28.273Z,100022.02
2019-05-20T06:30:58.298Z,100016.06
2019-05-20T06:33:28.172Z,100023.66
2019-05-20T06:35:58.051Z,100019.69
2019-05-20T06:38:43.070Z,100014.19
2019-05-20T06:41:12.996Z,100013.94
2019-05-20T06:43:42.901Z,100015.09
2019-05-20T06:46:12.813Z,100020.85
2019-05-20T06:48:42.696Z,100024.39
2019-05-20T06:51:12.621Z,100024.75
2019-05-20T06:53:42.441Z,100021.28
2019-05-20T06:56:12.422Z,100026.90
2019-05-20T06:58:42.219Z,100028.91
2019-05-20T07:01:12.064Z,100025.06
2019-05-20T07:03:42.006Z,100019.89
2019-05-20T07:06:11.908Z,100021.75
2019-05-20T07:08:41.827Z,100024.31
2019-05-20T07:11:11.964Z,100023.15
2019-05-20T07:13:41.926Z,100024.23
2019-05-20T07:16:11.893Z,100021.70
2019-05-20T07:18:41.776Z,100017.06
2019-05-20T07:21:11.656Z,100020.80
2019-05-20T07:23:41.616Z,100020.45
2019-05-20T07:26:11.513Z,100019.81
2019-05-20T07:28:41.336Z,100024.99
2019-05-20T07:31:11.249Z,100025.69
2019-05-20T07:33:41.122Z,100024.50
2019-05-20T07:36:10.922Z,100029.22
2019-05-20T07:38:40.717Z,100029.91
2019-05-20T07:41:10.565Z,100021.83
2019-05-20T07:43:40.416Z,100026.42
2019-05-20T07:46:11.134Z,100022.03
2019-05-20T07:48:41.545Z,100020.64
2019-05-20T07:51:12.586Z,100018.56
2019-05-20T07:53:43.639Z,100007.25
2019-05-20T07:56:16.708Z,100000.66
2019-05-20T07:58:50.062Z,100009.63
2019-05-20T08:01:20.000Z,100012.83
2019-05-20T08:03:49.773Z,100011.20
2019-05-20T08:06:19.823Z,100001.77
2019-05-20T08:08:49.767Z,99988.92
2019-05-20T08:11:19.482Z,99994.86
2019-05-20T08:13:49.263Z,99995.70
2019-05-20T08:16:19.171Z,99994.23
2019-05-20T08:18:49.128Z,99993.78
2019-05-20T08:21:19.362Z,99984.39
2019-05-20T08:23:50.309Z,99976.48
2019-05-20T08:26:20.347Z,99970.31
2019-05-20T08:28:50.284Z,99965.47
2019-05-20T08:31:20.141Z,99961.36
2019-05-20T08:33:49.973Z,99962.57
2019-05-20T08:36:19.939Z,99964.27
2019-05-20T08:38:49.640Z,99964.64
2019-05-20T08:41:19.605Z,99966.91
2019-05-20T08:43:49.367Z,99961.16
2019-05-20T08:46:19.214Z,99962.73
2019-05-20T08:48:49.033Z,99955.02
2019-05-20T08:51:19.002Z,99953.94
2019-05-20T08:53:48.891Z,99939.63
2019-05-20T08:56:18.922Z,99943.25
2019-05-20T08:58:48.727Z,99945.39
2019-05-20T09:01:18.458Z,99941.89
2019-05-20T09:03:48.301Z,99947.57
2019-05-20T09:06:20.695Z,99942.61
2019-05-20T09:08:49.670Z,99934.03
2019-05-20T09:11:19.362Z,99933.53
2019-05-20T09:13:49.089Z,99941.70
2019-05-20T09:16:19.078Z,99943.53
2019-05-20T09:18:48.974Z,99951.01
2019-05-20T09:21:18.939Z,99944.54
2019-05-20T09:23:48.823Z,99936.72
2019-05-20T09:26:18.647Z,99942.05
2019-05-20T09:28:48.681Z,99931.83
2019-05-20T09:31:18.600Z,99929.65
2019-05-20T09:33:48.565Z,99927.86
2019-05-20T09:36:18.401Z,99928.73
2019-05-20T09:38:48.264Z,99924.75
2019-05-20T09:41:18.241Z,99935.73
2019-05-20T09:43:48.146Z,99925.89
2019-05-20T09:46:18.000Z,99923.27
2019-05-20T09:48:47.791Z,99911.33
2019-05-20T09:51:17.791Z,99913.79
2019-05-20T09:53:47.583Z,99920.04
2019-05-20T09:56:17.320Z,99912.83
2019-05-20T09:58:47.113Z,99915.22
2019-05-20T10:01:16.909Z,99916.59
2019-05-20T10:03:46.750Z,99909.14
2019-05-20T10:06:16.635Z,99908.47
2019-05-20T10:08:46.384Z,99907.59
2019-05-20T10:11:16.235Z,99900.89
2019-05-20T10:13:46.158Z,99896.60
2019-05-20T10:16:16.048Z,99896.70
2019-05-20T10:18:45.935Z,99884.34
2019-05-20T10:21:15.795Z,99894.22
2019-05-20T10:23:45.548Z,99890.97
2019-05-20T10:26:15.317Z,99888.41
2019-05-20T10:28:47.346Z,99891.70
2019-05-20T10:31:16.550Z,99887.00
2019-05-20T10:33:46.595Z,99886.37
2019-05-20T10:36:16.334Z,99883.95
2019-05-20T10:38:58.121Z,99887.14
2019-05-20T10:41:17.711Z,99883.52
2019-05-20T10:43:47.527Z,99879.32
2019-05-20T10:46:17.360Z,99877.31
2019-05-20T10:48:48.119Z,99870.30
2019-05-20T10:51:17.486Z,99865.69
2019-05-20T10:53:47.265Z,99863.20
2019-05-20T10:56:17.113Z,99865.73
2019-05-20T10:58:46.904Z,99863.44
2019-05-20T11:01:16.659Z,99860.19
2019-05-20T11:03:46.449Z,99855.84
2019-05-20T11:06:16.286Z,99848.85
2019-05-20T11:08:46.185Z,99855.64
2019-05-20T11:11:16.057Z,99849.77
2019-05-20T11:13:45.951Z,99840.64
2019-05-20T11:16:15.788Z,99857.42
2019-05-20T11:18:46.634Z,99867.05
2019-05-20T11:21:16.532Z,99863.14
2019-05-20T11:23:46.335Z,99873.41
2019-05-20T11:26:16.158Z,99859.83
2019-05-20T11:28:46.013Z,99858.55
2019-05-20T11:31:15.881Z,99854.47
2019-05-20T11:33:45.738Z,99851.33
2019-05-20T11:36:15.528Z,99856.05
2019-05-20T11:38:45.403Z,99856.67
2019-05-20T11:41:15.132Z,99853.70
2019-05-20T11:43:44.949Z,99849.76
2019-05-20T11:46:14.853Z,99848.70
2019-05-20T11:48:44.785Z,99851.61
2019-05-20T11:51:14.521Z,99833.37
2019-05-20T11:53:44.440Z,99834.45
2019-05-20T11:56:14.230Z,99829.64
2019-05-20T11:58:44.028Z,99830.33
2019-05-20T12:01:13.893Z,99825.73
2019-05-20T12:03:43.746Z,99822.95
2019-05-20T12:06:13.721Z,99815.73
2019-05-20T12:08:43.538Z,99829.26
2019-05-20T12:11:13.697Z,99823.54
2019-05-20T12:13:43.549Z,99834.45
2019-05-20T12:16:13.450Z,99828.80
2019-05-20T12:18:45.171Z,99818.21
2019-05-20T12:21:14.840Z,99820.44
2019-05-20T12:23:44.735Z,99816.06
2019-05-20T12:26:14.581Z,99816.19
2019-05-20T12:28:44.494Z,99811.04
2019-05-20T12:31:14.344Z,99810.99
2019-05-20T12:33:44.166Z,99814.25
2019-05-20T12:36:14.050Z,99814.72
2019-05-20T12:38:43.944Z,99796.92
2019-05-20T12:41:13.881Z,99801.25
2019-05-20T12:43:44.866Z,99791.91
2019-05-20T12:46:15.119Z,99792.27
2019-05-20T12:48:45.148Z,99788.59
2019-05-20T12:51:15.158Z,99786.58
2019-05-20T12:53:44.974Z,99784.55
2019-05-20T12:56:14.754Z,99786.55
2019-05-20T12:58:44.663Z,99788.77
2019-05-20T13:01:14.459Z,99772.06
2019-05-20T13:03:44.259Z,99771.55
2019-05-20T13:06:14.052Z,99780.47
2019-05-20T13:08:43.962Z,99773.30
2019-05-20T13:11:13.853Z,99774.94
2019-05-20T13:13:43.897Z,99767.55
2019-05-20T13:16:13.648Z,99769.01
2019-05-20T13:18:55.396Z,99767.05
2019-05-20T13:21:15.086Z,99769.45
2019-05-20T13:23:48.492Z,99766.91
2019-05-20T13:26:16.529Z,99771.98
2019-05-20T13:28:46.271Z,99768.12
2019-05-20T13:31:16.135Z,99766.45
2019-05-20T13:33:46.018Z,99755.94
2019-05-20T13:36:15.881Z,99757.91
2019-05-20T13:38:45.672Z,99752.55
2019-05-20T13:41:15.413Z,99747.95
2019-05-20T13:43:45.157Z,99747.09
2019-05-20T13:46:15.046Z,99745.75
2019-05-20T13:48:44.943Z,99742.15
2019-05-20T13:51:14.808Z,99740.35
2019-05-20T13:53:44.630Z,99735.72
2019-05-20T13:56:14.558Z,99727.84
2019-05-20T13:58:44.270Z,99724.50
2019-05-20T14:01:14.148Z,99724.91
2019-05-20T14:03:44.069Z,99720.45
2019-05-20T14:06:13.977Z,99723.28
2019-05-20T14:08:43.788Z,99718.09
2019-05-20T14:11:14.968Z,99711.89
2019-05-20T14:19:34.177Z,99703.33
2019-05-20T14:22:03.918Z,99704.52
2019-05-20T14:24:33.763Z,99705.34
2019-05-20T14:27:05.051Z,99705.86
2019-05-20T14:29:34.848Z,99707.19
2019-05-20T14:32:04.678Z,99713.06
2019-05-20T14:34:34.516Z,99709.53
2019-05-20T14:37:04.423Z,99712.20
2019-05-20T14:39:34.204Z,99707.72
2019-05-20T14:42:03.978Z,99703.81
2019-05-20T14:44:33.757Z,99701.45
2019-05-20T14:47:03.472Z,99702.77
2019-05-20T14:49:33.218Z,99697.90
2019-05-20T14:52:03.506Z,99704.05
2019-05-20T14:54:33.515Z,99697.75
2019-05-20T14:57:03.230Z,99700.05
2019-05-20T14:59:33.224Z,99701.72
2019-05-20T15:02:03.075Z,99692.56
2019-05-20T15:04:32.935Z,99694.83
2019-05-20T15:07:02.794Z,99700.95
2019-05-20T15:09:32.586Z,99699.16
2019-05-20T15:12:02.478Z,99686.31
2019-05-20T15:14:32.234Z,99697.94
2019-05-20T15:17:01.987Z,99693.67
2019-05-20T15:19:31.789Z,99702.22
2019-05-20T15:22:01.579Z,99703.41
2019-05-20T15:24:31.368Z,99709.51
2019-05-20T15:27:01.277Z,99720.73
2019-05-20T15:29:31.064Z,99707.31
2019-05-20T15:32:00.855Z,99708.54
2019-05-20T15:34:30.546Z,99706.91
2019-05-20T15:37:00.386Z,99700.62
2019-05-20T15:39:30.146Z,99709.19
2019-05-20T15:42:00.915Z,99708.19
2019-05-20T15:44:31.045Z,99707.81
2019-05-20T15:47:01.444Z,99712.48
2019-05-20T15:49:31.119Z,99709.83
2019-05-20T15:52:00.889Z,99717.78
2019-05-20T15:54:30.621Z,99715.33
2019-05-20T15:57:00.394Z,99720.02
2019-05-20T15:59:44.809Z,99711.47
2019-05-20T16:02:01.650Z,99700.70
2019-05-20T16:04:31.345Z,99702.97
2019-05-20T16:07:01.075Z,99709.67
2019-05-20T16:09:30.911Z,99720.66
2019-05-20T16:12:00.748Z,99718.63
2019-05-20T16:14:30.479Z,99718.61
2019-05-20T16:17:00.309Z,99730.41
2019-05-20T16:19:30.062Z,99722.27
2019-05-20T16:21:59.809Z,99714.36
2019-05-20T16:24:29.546Z,99716.38
2019-05-20T16:26:59.669Z,99714.15
2019-05-20T16:29:30.690Z,99716.56
2019-05-20T16:32:00.602Z,99714.34
2019-05-20T16:34:30.375Z,99717.59
2019-05-20T16:37:00.253Z,99716.97
2019-05-20T16:39:31.058Z,99722.77
2019-05-20T16:42:01.155Z,99721.30
2019-05-20T16:44:30.981Z,99731.77
2019-05-20T16:47:00.826Z,99726.92
2019-05-20T16:49:30.578Z,99731.70
2019-05-20T16:52:00.311Z,99733.23
2019-05-20T16:54:30.135Z,99730.27
2019-05-20T16:56:59.979Z,99734.08
2019-05-20T16:59:29.842Z,99739.36
2019-05-20T17:01:59.612Z,99734.94
2019-05-20T17:04:29.350Z,99734.58
2019-05-20T17:06:59.263Z,99740.79
2019-05-20T17:09:29.067Z,99740.50
2019-05-20T17:11:58.923Z,99747.04
2019-05-20T17:14:28.709Z,99748.09
2019-05-20T17:16:58.687Z,99754.90
2019-05-20T17:19:28.493Z,99748.69
2019-05-20T17:21:58.324Z,99752.93
2019-05-20T17:24:28.160Z,99754.56
2019-05-20T17:26:58.138Z,99752.28
2019-05-20T17:29:28.059Z,99746.12
2019-05-20T17:31:57.871Z,99758.28
2019-05-20T17:34:27.764Z,99755.25
2019-05-20T17:36:57.597Z,99763.25
2019-05-20T17:39:27.648Z,99766.73
2019-05-20T17:41:57.414Z,99763.55
2019-05-20T17:44:27.131Z,99757.34
2019-05-20T17:46:57.145Z,99766.19
2019-05-20T17:49:27.174Z,99766.19
2019-05-20T17:51:57.065Z,99773.92
2019-05-20T17:54:27.064Z,99779.21
2019-05-20T17:56:56.775Z,99782.80
2019-05-20T17:59:26.685Z,99774.48
2019-05-20T18:01:57.419Z,99774.48
2019-05-20T18:04:27.228Z,99765.67
2019-05-20T18:06:57.058Z,99773.40
2019-05-20T18:09:28.616Z,99767.31
2019-05-20T18:11:58.467Z,99765.23
2019-05-20T18:14:28.344Z,99757.80
2019-05-20T18:16:58.211Z,99763.05
2019-05-20T18:19:28.060Z,99763.59
2019-05-20T18:21:57.981Z,99771.98
2019-05-20T18:24:27.883Z,99771.98
2019-05-20T18:26:57.864Z,99771.69
2019-05-20T18:29:27.826Z,99777.05
2019-05-20T18:31:57.624Z,99781.06
2019-05-20T18:34:27.580Z,99777.66
2019-05-20T18:36:57.391Z,99778.23
2019-05-20T18:39:27.229Z,99781.06
2019-05-20T18:41:57.133Z,99783.31
2019-05-20T18:44:27.028Z,99786.58
2019-05-20T18:46:57.226Z,99793.25
2019-05-20T18:49:27.607Z,99793.64
2019-05-20T18:51:57.350Z,99784.94
2019-05-20T18:54:27.219Z,99783.89
2019-05-20T18:56:57.689Z,99788.13
2019-05-20T18:59:27.940Z,99783.31
2019-05-20T19:02:05.203Z,99785.48
2019-05-20T19:04:29.250Z,99783.23
2019-05-20T19:06:59.435Z,99779.39
2019-05-20T19:09:29.154Z,99774.84
2019-05-20T19:11:59.064Z,99776.58
2019-05-20T19:14:28.907Z,99776.97
2019-05-20T19:16:58.744Z,99774.50
2019-05-20T19:19:29.149Z,99769.29
2019-05-20T19:21:58.884Z,99764.03
2019-05-20T19:24:29.197Z,99751.77
2019-05-20T19:26:59.114Z,99757.23
2019-05-20T19:29:29.130Z,99753.08
2019-05-20T19:32:01.778Z,99755.73
2019-05-20T19:34:31.146Z,99754.98
2019-05-20T19:37:00.875Z,99756.61
2019-05-20T19:39:31.706Z,99756.39
2019-05-20T19:42:01.507Z,99753.88
2019-05-20T19:44:31.386Z,99754.36
2019-05-20T19:47:01.110Z,99753.41
2019-05-20T19:49:31.040Z,99743.97
2019-05-20T19:52:00.894Z,99746.30
2019-05-20T19:54:30.666Z,99757.46
2019-05-20T19:57:00.514Z,99750.70
2019-05-20T19:59:30.374Z,99754.81
2019-05-20T20:02:00.267Z,99762.75
2019-05-20T20:04:30.452Z,99768.48
2019-05-20T20:07:00.286Z,99771.43
2019-05-20T20:09:30.124Z,99772.84
2019-05-20T20:12:00.180Z,99770.41
2019-05-20T20:14:30.008Z,99770.77
2019-05-20T20:16:59.773Z,99768.91
2019-05-20T20:19:29.594Z,99767.88
2019-05-20T20:21:59.411Z,99763.09
2019-05-20T20:24:29.403Z,99766.20
2019-05-20T20:26:59.429Z,99768.75
2019-05-20T20:29:29.210Z,99778.30
2019-05-20T20:31:59.015Z,99780.91
2019-05-20T20:34:30.656Z,99770.14
2019-05-20T20:37:00.345Z,99785.50
2019-05-20T20:39:30.215Z,99785.78
2019-05-20T20:42:00.008Z,99790.14
2019-05-20T20:44:29.798Z,99806.55
2019-05-20T20:46:59.631Z,99806.35
2019-05-20T20:49:29.530Z,99799.25
2019-05-20T20:51:59.394Z,99805.02
2019-05-20T20:54:30.088Z,99797.27
2019-05-20T20:56:59.872Z,99810.72
2019-05-20T20:59:29.663Z,99801.36
2019-05-20T21:01:59.551Z,99805.42
2019-05-20T21:04:29.268Z,99812.13
2019-05-20T21:06:59.071Z,99806.22
2019-05-20T21:09:28.959Z,99813.34
2019-05-20T21:11:58.702Z,99819.13
2019-05-20T21:14:28.539Z,99822.28
2019-05-20T21:16:58.331Z,99820.08
2019-05-20T21:19:28.153Z,99823.92
2019-05-20T21:21:58.030Z,99811.63
2019-05-20T21:24:27.941Z,99813.27
2019-05-20T21:26:58.638Z,99821.94
2019-05-20T21:29:32.350Z,99828.88
2019-05-20T21:32:01.277Z,99817.83
2019-05-20T21:34:31.291Z,99805.08
2019-05-20T21:37:00.959Z,99804.97
2019-05-20T21:39:30.861Z,99808.39
2019-05-20T21:42:00.686Z,99808.63
2019-05-20T21:44:30.534Z,99810.27
2019-05-20T21:47:00.459Z,99808.02
2019-05-20T21:49:30.443Z,99807.94
2019-05-20T21:52:00.289Z,99816.13
2019-05-20T21:54:31.400Z,99814.27
2019-05-20T21:57:01.230Z,99818.87
2019-05-20T21:59:30.932Z,99809.81
2019-05-20T22:02:01.004Z,99811.59
2019-05-20T22:04:30.799Z,99815.36
2019-05-20T22:07:00.628Z,99810.69
2019-05-20T22:09:30.575Z,99808.22
2019-05-20T22:12:00.397Z,99812.81
2019-05-20T22:14:30.274Z,99807.07
2019-05-20T22:17:00.104Z,99805.59
2019-05-20T22:19:29.920Z,99806.16
2019-05-20T22:22:14.714Z,99805.70
2019-05-20T22:24:44.430Z,99806.19
2019-05-20T22:27:14.344Z,99806.08
2019-05-20T22:29:45.174Z,99807.11
2019-05-20T22:32:15.399Z,99807.56
2019-05-20T22:34:53.107Z,99810.38
2019-05-20T22:37:16.917Z,99805.70
2019-05-20T22:39:47.444Z,99803.61
2019-05-20T22:42:18.310Z,99809.23
2019-05-20T22:44:49.411Z,99809.23
2019-05-20T22:47:19.646Z,99809.50
2019-05-20T22:49:50.885Z,99808.78
2019-05-20T22:52:20.693Z,99809.73
2019-05-20T22:54:50.512Z,99803.64
2019-05-20T22:57:20.701Z,99802.84
2019-05-20T22:59:50.597Z,99806.72
2019-05-20T23:02:20.472Z,99806.48
2019-05-20T23:04:50.427Z,99815.28
2019-05-20T23:07:20.494Z,99814.47
2019-05-20T23:09:50.283Z,99817.63
2019-05-20T23:12:20.281Z,99816.37
2019-05-20T23:14:51.909Z,99824.36
2019-05-20T23:17:21.926Z,99811.80
2019-05-20T23:19:52.083Z,99819.44
2019-05-20T23:22:23.155Z,99815.22
2019-05-20T23:24:57.726Z,99809.48
2019-05-20T23:27:28.747Z,99812.52
2019-05-20T23:29:58.732Z,99806.66
2019-05-20T23:32:29.364Z,99804.30
2019-05-20T23:34:59.210Z,99805.71
2019-05-20T23:37:29.044Z,99810.08
2019-05-20T23:39:58.855Z,99812.28
2019-05-20T23:42:28.674Z,99819.20
2019-05-20T23:44:58.532Z,99826.02
2019-05-20T23:47:28.448Z,99829.17
2019-05-20T23:49:58.212Z,99828.37
2019-05-20T23:52:28.053Z,99831.98
2019-05-20T23:54:57.870Z,99832.36
2019-05-20T23:57:28.597Z,99839.73
2019-05-20T23:59:58.493Z,99847.38
